Tiempo atmosférico en la estación meteorológica de Talavera De La Reina, Toledo (372 m.)



Fecha
DESCASC
Temp. máxima en grados centígrados (hora)
DESCASC
Temp. mínima en grados centígrados (hora)
DESCASC
Temp. media en grados centígrados
DESCASC
Racha de viento máxima en m/sg (hora)
DESCASC
Velocidad máxima media en intervalos de 10 minutos(hora)
DESCASC
Precipitaciones diarias en mm
DESCASC
Precipitaciones de 00:00 a 06:00 en mm
DESCASC
Precipitaciones de 06:00 a 12:00 en mm
DESCASC
Precipitaciones de 12:00 a 18:00 en mm
DESCASC
Precipitaciones de 18:00 a 24:00 en mm
DESCASC
19-01-2020 12.1 (15:10) 2.9 (08:00) 7.5 18.89 (20:10) 9.44 (12:50) 0.2 0.2 0 0 0
18-01-2020 11 (21:30) 5.5 (01:40) 8.3 11.11 (21:20) 6.67 (21:30) 5.2 0.2 4.2 0.8 0
17-01-2020 14.7 (15:40) 6 (23:40) 10.3 7.78 (14:20) 5 (15:40) 0 0 0 0 0
16-01-2020 16.8 (16:40) 7.1 (00:00) 11.9 5 (14:50) 3.06 (14:50) 0.2 0 0 0 0.2
15-01-2020 7.7 (23:50) 3.2 (00:00) 5.4 5.83 (09:40) 2.78 (06:00) 0.4 0 0 0.2 0.2
14-01-2020 11.1 (16:30) -2.9 (-00:0) 4.1 5.83 (11:50) 3.61 (12:30) 0 0 0 0 0
13-01-2020 10 (16:50) -2.8 (-00:0) 3.6 3.89 (01:30) 2.78 (07:20) 0 0 0 0 0
12-01-2020 12.3 (17:00) -3 (08:40) 4.7 5.28 (11:20) 3.33 (10:10) 0 0 0 0 0
11-01-2020 11.5 (16:10) -1.6 (-00:0) 4.9 5.56 (12:40) 3.61 (12:40) 0 0 0 0 0
10-01-2020 13.8 (14:30) 0.4 (00:00) 7.1 8.33 (15:10) 4.72 (15:10) 0 0 0 0 0
09-01-2020 13.6 (17:10) 0.5 (00:00) 7.1 4.17 (12:30) 2.5 (11:20) 0 0 0 0 0
08-01-2020 13 (16:50) -1 (-00:0) 6 5 (12:30) 2.78 (12:30) 0 0 0 0 0
07-01-2020 14.2 (16:30) -1.3 (-00:0) 6.4 5 (11:40) 3.33 (11:50) 0 0 0 0 0
06-01-2020 12.1 (16:40) -1.4 (-00:0) 5.4 4.72 (12:20) 2.78 (11:10) 0 0 0 0 0
05-01-2020 11.3 (16:40) -0.6 (-00:0) 5.4 4.72 (11:40) 2.5 (02:10) 0 0 0 0 0
04-01-2020 11.2 (17:00) 0.3 (00:00) 5.7 5.56 (09:10) 3.33 (03:10) 0 0 0 0 0
03-01-2020 8.6 (16:50) 1.5 (00:00) 5.1 4.44 (11:30) 2.5 (13:00) 0 0 0 0 0
02-01-2020 7 (16:50) 0.8 (00:00) 3.9 7.22 (06:50) 3.61 (09:50) 0 0 0 0 0
01-01-2020 6.4 (16:40) 0 (00:00) 3.2 6.67 (10:40) 3.61 (07:30) 0 0 0 0 0
31-12-2019 11.2 (16:20) -0.9 (-00:0) 5.1 5.83 (11:10) 3.61 (11:10) 0 0 0 0 0
30-12-2019 13.5 (16:30) 0.4 (00:00) 7 7.78 (12:10) 3.89 (12:40) 0 0 0 0 0
29-12-2019 14.4 (16:40) 1.4 (00:00) 7.9 8.33 (13:20) 4.72 (12:30) 0 0 0 0 0
28-12-2019 14.2 (16:00) 1.4 (00:00) 7.8 6.39 (11:30) 3.89 (11:30) 0 0 0 0 0
27-12-2019 14.3 (16:50) 2.5 (00:00) 8.4 7.22 (13:10) 4.17 (11:30) 0 0 0 0 0
26-12-2019 15.6 (16:40) 4.1 (00:00) 9.9 5 (10:30) 3.06 (11:40) 0 0 0 0 0
25-12-2019 15.4 (16:30) 4.2 (00:00) 9.8 5.28 (11:30) 3.33 (11:20) 0 0 0 0 0
24-12-2019 14.2 (16:30) 4.2 (02:50) 9.2 6.67 (11:40) 3.89 (12:10) 0 0 0 0 0
23-12-2019 14.9 (16:00) 3.2 (00:00) 9 4.72 (14:30) 3.33 (14:50) 0 0 0 0 0
22-12-2019 15.7 (16:40) 11.2 (23:59) 13.4 22.5 (01:20) 15 (01:20) 0 0 0 0 0

Gráficas

Temp. máximas Temp. mínimas Temp. medias Precipitaciones Rachas de viento máximas Velocidades máximas media en intervalos de 10 minutos

Datos horarios

Fecha y hora oficial Temperatura (ºC) Velocidad del viento (km/h) Dirección del viento Racha (km/h) Dirección de racha Precipitación (mm) Presión (hPa) Tendencia (hPa) Humedad (%)
2020-01-20 23:00:00 7.3 29 Este 66 Este 0 978.4 0.3 51
2020-01-20 22:00:00 7.7 24 Este 48 Este 0 978.2 0.6 48
2020-01-20 21:00:00 7.7 22 Este 58 Este 0 978.3 1.3 50
2020-01-20 20:00:00 7.4 20 Nordeste 53 Este 0 978.1 1.1 56
2020-01-20 19:00:00 7.8 25 Este 58 Este 0 977.6 0.2 48
2020-01-20 18:00:00 8.3 26 Este 52 Este 0 977 -0.8 44
2020-01-20 17:00:00 7.8 20 Este 54 Nordeste 0 977 -1.9 53
2020-01-20 16:00:00 8.2 28 Este 59 Este 0 977.4 -1.9 42
2020-01-20 15:00:00 8.2 22 Este 58 Este 0 977.8 -2 41
2020-01-20 14:00:00 7.9 33 Este 63 Este 0 978.9 -0.5 40
2020-01-20 13:00:00 7.8 32 Este 59 Este 0 979.3 0.2 34
2020-01-20 12:00:00 6.8 14 Sudeste 32 Sudeste 0 979.8 0.9 35
2020-01-20 11:00:00 5.9 14 Este 31 Este 0 979.4 0.5 36
2020-01-20 10:00:00 2.9 7 Este 14 Este 0 979.1 0.6 55
2020-01-20 09:00:00 -0.5 3 Noroeste 9 Nordeste 0 978.9 0.3 68
2020-01-20 08:00:00 1 4 Nordeste 22 Este 0 978.9 -0.4 59
2020-01-20 07:00:00 3.3 11 Este 32 Este 0 978.5 -1.4 46
2020-01-20 06:00:00 4.3 13 Este 26 Este 0 978.6 -1.5 41
2020-01-20 05:00:00 4 5 Nordeste 19 Este 0 979.3 -1.5 47
2020-01-20 04:00:00 4.9 8 Este 17 Este 0 979.9 -1.3 39
2020-01-20 03:00:00 4.1 4 Nordeste 12 Este 0 980.1 -1 48
2020-01-20 02:00:00 4.7 7 Este 25 Nordeste 0 980.8 0.7 45
2020-01-20 01:00:00 5.5 15 Este 31 Nordeste 0 981.2 1.2 40
2020-01-20 00:00:00 5.5 12 Este 53 Nordeste 0 981.1 1.7 40
2020-01-19 23:00:00 6 29 Nordeste 56 Este 0 980.1 1.1 38
2020-01-19 22:00:00 6.4 25 Nordeste 54 Nordeste 0 980 1.4 34
2020-01-19 21:00:00 6.9 28 Nordeste 68 Nordeste 0 979.4 1.7 34
2020-01-19 20:00:00 8 28 Nordeste 51 Nordeste 0 979 1.9 33
2020-01-19 19:00:00 9 23 Nordeste 59 Nordeste 0 978.6 1.3 33
2020-01-19 18:00:00 10.3 26 Nordeste 57 Nordeste 0 977.7 0.5 30
2020-01-19 17:00:00 11 31 Nordeste 53 Nordeste 0 977.1 -0.9 29
2020-01-19 16:00:00 11 28 Nordeste 62 Nordeste 0 977.3 -1.4 32
2020-01-19 15:00:00 11.8 28 Nordeste 48 Nordeste 0 977.2 -1.5 37
2020-01-19 14:00:00 11.8 25 Nordeste 53 Nordeste 0 978 -0.3 43
2020-01-19 13:00:00 9.7 29 Nordeste 60 Nordeste 0 978.7 1.2 48
2020-01-19 12:00:00 10.3 18 Nordeste 51 Nordeste 0 978.7 1.3 55
2020-01-19 11:00:00 7.7 11 Nordeste -- -- 0 978.3 1.4 74
2020-01-19 10:00:00 5.1 5 Norte 15 Nordeste 0 977.5 0.7 94
2020-01-19 09:00:00 4 4 Sur 10 Oeste 0 977.4 0.3 93
2020-01-19 08:00:00 3 2 Sudeste 9 Sur 0 976.9 -0.3 93
2020-01-19 07:00:00 3.7 3 Oeste 9 Noroeste 0 976.8 -0.3 92
2020-01-19 06:00:00 5.1 5 Este 12 Sudeste 0 977.1 -0.1 91
2020-01-19 05:00:00 5.8 4 Este 11 Sudoeste 0 977.2 0.5 91
2020-01-19 04:00:00 7 6 Sudoeste 12 Sudeste 0 977.1 -0.1 88
2020-01-19 03:00:00 7 8 Noroeste 14 Sudoeste 0 977.2 -0.5 88
2020-01-19 02:00:00 7.7 6 Sudoeste 21 Oeste 0 976.7 -0.7 89
2020-01-19 01:00:00 8.6 5 Oeste 39 Noroeste 0.2 977.2 -0.3 89
2020-01-19 00:00:00 9.8 16 Noroeste 34 Noroeste 0 977.7 0.1 89
2020-01-18 23:00:00 10.4 20 Oeste 35 Oeste 0 977.4 -0.5 90
2020-01-18 22:00:00 10.4 11 Noroeste 40 Oeste 0 977.5 -0.3 91
2020-01-18 21:00:00 10.5 18 Oeste 32 Oeste 0 977.6 -1.3 94
2020-01-18 20:00:00 10.3 14 Oeste 23 Oeste 0 977.9 -1.5 94
2020-01-18 19:00:00 9.9 8 Oeste 17 Oeste 0 977.8 -2.7 93
2020-01-18 18:00:00 10 9 Oeste 15 Oeste 0.2 978.9 -2.8 93
2020-01-18 17:00:00 10.4 12 Oeste 21 Oeste 0.2 979.4 -3.7 93
2020-01-18 16:00:00 10.7 11 Oeste 18 Oeste 0 980.5 -4.1 93
2020-01-18 15:00:00 10.3 7 Oeste 13 Oeste 0 981.7 -4.1 92
2020-01-18 14:00:00 9.5 2 Sudeste 9 Este 0.2 983.1 -2.9 93
2020-01-18 13:00:00 8.9 5 Este 11 Este 0.2 984.6 -1.2 94
2020-01-18 12:00:00 8 7 Este 12 Este 0.4 985.8 -0.2 94
2020-01-18 11:00:00 7.5 5 Este 10 Este 0 986 -0.2 93
2020-01-18 10:00:00 7 4 Este 9 Este 0.2 985.8 -1 94
2020-01-18 09:00:00 6.9 5 Nordeste 11 Este 0 986 -0.2 93
2020-01-18 08:00:00 6.6 3 Sudoeste 10 Este 1.6 986.2 0.4 93
2020-01-18 07:00:00 6.6 8 Este 11 Nordeste 2 986.8 0.7 93
2020-01-18 06:00:00 6.1 5 Nordeste 10 Nordeste 0.2 986.2 -0.7 92
2020-01-18 05:00:00 6 8 Este 12 Nordeste 0 985.8 -1.7 92
2020-01-18 04:00:00 5.7 3 Este 4 Este 0 986.1 -1.8 92
2020-01-18 03:00:00 5.7 2 Sudoeste 6 Sur 0 986.9 -1.1 91
2020-01-18 02:00:00 5.7 2 Nordeste 5 Noroeste 0 987.5 -0.3 91
2020-01-18 01:00:00 5.9 4 Noroeste 7 Sudeste 0 987.9 -0.2 89
2020-01-18 00:00:00 6.1 0 Calma 7 Noroeste 0 988 -0.3 89
2020-01-17 23:00:00 6.4 4 Este 6 Este 0 987.8 -0.2 88
2020-01-17 22:00:00 6.8 0 Calma 9 Sudoeste 0 988.1 0.7 85
2020-01-17 21:00:00 7.4 4 Sur 9 Sur 0 988.3 0.9 84
2020-01-17 20:00:00 7.4 0 Calma 6 Oeste 0 988 0.8 82
2020-01-17 19:00:00 9.4 5 Oeste 15 Noroeste 0 987.4 0.8 74
2020-01-17 18:00:00 12.7 10 Noroeste 19 Oeste 0 987.4 0.7 66
2020-01-17 17:00:00 12.7 13 Oeste 28 Oeste 0 987.2 -0.1 64
2020-01-17 16:00:00 13.4 17 Oeste 28 Noroeste 0 986.6 -1.1 63
2020-01-17 15:00:00 13 15 Noroeste 28 Oeste 0 986.7 -1.3 73
2020-01-17 14:00:00 12.2 15 Oeste 25 Oeste 0 987.3 -0.2 77
2020-01-17 13:00:00 11.8 12 Oeste 22 Oeste 0 987.7 0.8 80
2020-01-17 12:00:00 10.8 8 Oeste 18 Oeste 0 988 1.8 82
2020-01-17 11:00:00 9.2 5 Oeste 11 Noroeste 0 987.5 1.9 87
2020-01-17 10:00:00 7.9 4 Norte 13 Sudoeste 0 986.9 1.8 90
2020-01-17 09:00:00 7.7 8 Oeste 13 Oeste 0 986.2 1.7 89
2020-01-17 08:00:00 8.3 6 Sudoeste 10 Sudoeste 0 985.6 1.3 88
2020-01-17 07:00:00 8.5 5 Sudoeste 11 Oeste 0 985.1 1.1 86
2020-01-17 06:00:00 8.6 6 Oeste 11 Oeste 0 984.5 0.3 86
2020-01-17 05:00:00 8.6 5 Oeste 9 Noroeste 0 984.3 0.5 85
2020-01-17 04:00:00 9.3 3 Sudoeste 9 Sudoeste 0 984 -0.2 80
2020-01-17 03:00:00 9.3 5 Sudoeste 9 Sudoeste 0 984.2 0.7 80
2020-01-17 02:00:00 9.4 6 Sur 17 Noroeste 0 983.8 0.4 80
2020-01-17 01:00:00 9.1 11 Noroeste 17 Oeste 0 984.2 1.3 83
2020-01-17 00:00:00 8.8 5 Sudoeste 13 Sur 0 983.5 1.2 86
2020-01-16 23:00:00 8.2 4 Noroeste 10 Sudoeste 0.2 983.4 1.3 89
2020-01-16 22:00:00 7.1 6 Noroeste 10 Noroeste 0 982.9 1.4 88
2020-01-16 21:00:00 8.6 0 Calma 9 Sur 0 982.3 1.1 82
2020-01-16 20:00:00 10.6 4 Sudoeste 9 Noroeste 0 982.1 1.1 77
2020-01-16 19:00:00 12.2 6 Noroeste 8 Oeste 0 981.5 0.1 71
2020-01-16 18:00:00 15 5 Oeste 17 Oeste 0 981.2 -0.6 65
2020-01-16 17:00:00 16.5 7 Oeste 14 Noroeste 0 981 -1.8 55
2020-01-16 16:00:00 16.3 6 Oeste 16 Oeste 0 981.4 -2.2 55
2020-01-16 15:00:00 15.9 7 Oeste 18 Oeste 0 981.8 -2.6 60
2020-01-16 14:00:00 14.1 3 Norte 10 Nordeste 0 982.8 -1.4 67
2020-01-16 13:00:00 12.4 6 Este 13 Este 0 983.6 -0.2 75
2020-01-16 12:00:00 10.8 9 Este 14 Este 0 984.4 0.7 83
2020-01-16 11:00:00 8.7 7 Nordeste 10 Este 0 984.2 0.8 89
2020-01-16 10:00:00 7.7 7 Nordeste 10 Este 0 983.8 0.6 91
2020-01-16 09:00:00 7.6 6 Nordeste 9 Nordeste 0 983.7 0.6 91
2020-01-16 08:00:00 7.9 6 Este 16 Este 0 983.4 0 90
2020-01-16 07:00:00 7.8 10 Este 14 Nordeste 0 983.2 -0.5 91
2020-01-16 06:00:00 7.8 7 Este 12 Este 0 983.1 -0.5 91
2020-01-16 05:00:00 7.7 5 Nordeste 12 Nordeste 0 983.4 -0.4 90
2020-01-16 04:00:00 7.7 3 Nordeste 9 Nordeste 0 983.7 -0.4 91
2020-01-16 03:00:00 7.7 6 Nordeste 10 Este 0 983.6 -0.6 91
2020-01-16 02:00:00 7.6 8 Este 12 Este 0 983.8 -0.1 92
2020-01-16 01:00:00 7.8 5 Nordeste 15 Este 0 984.1 0.3 90
2020-01-16 00:00:00 7.7 6 Este 14 Este 0 984.2 0.6 91
2020-01-15 23:00:00 7.4 9 Este 15 Este 0 983.9 0.6 92
2020-01-15 22:00:00 7.4 7 Este 14 Nordeste 0.2 983.8 0.9 93
2020-01-15 21:00:00 7.2 8 Este 15 Este 0 983.6 1.1 93
2020-01-15 20:00:00 7.2 9 Este 13 Este 0 983.3 1 93
2020-01-15 19:00:00 7.4 5 Este 13 Nordeste 0 982.9 1 93
2020-01-15 18:00:00 7.5 8 Este 14 Este 0 982.5 0.7 93
2020-01-15 17:00:00 7.6 8 Este 15 Este 0 982.3 0.3 93
2020-01-15 16:00:00 7.2 6 Este 14 Este 0 981.9 -0.3 92
2020-01-15 15:00:00 7.4 6 Este 13 Este 0.2 981.8 -0.6 91
2020-01-15 14:00:00 7.1 10 Nordeste 14 Nordeste 0 982 0.1 89
2020-01-15 13:00:00 6.6 7 Nordeste 13 Nordeste 0 982.2 1.5 90
2020-01-15 12:00:00 6.1 8 Este 13 Este 0 982.4 2.6 88
2020-01-15 11:00:00 5.4 5 Este 10 Este 0 981.9 2.4 91
2020-01-15 10:00:00 4.8 6 Este 21 Nordeste 0 980.7 1.6 90
2020-01-15 09:00:00 4.2 7 Este 12 Este 0 979.8 0.7 90
2020-01-15 08:00:00 4.1 9 Este 14 Nordeste 0 979.5 0.2 90
2020-01-15 07:00:00 3.7 7 Sudeste 14 Este 0 979.1 -0.1 90
2020-01-15 06:00:00 3.9 10 Este 13 Este 0 979.1 -0.1 90
2020-01-15 05:00:00 4.3 6 Este 13 Nordeste 0 979.3 0.1 88
2020-01-15 04:00:00 5.3 5 Nordeste 10 Sudoeste 0 979.2 -0.1 86
2020-01-15 03:00:00 6.4 5 Sudeste 13 Nordeste 0 979.2 -0.3 83
2020-01-15 02:00:00 6.9 6 Este 12 Nordeste 0 979.2 -0.1 82
2020-01-15 01:00:00 6.7 6 Nordeste 10 Nordeste 0 979.3 0.1 84
2020-01-15 00:00:00 6.9 5 Este 8 Este 0 979.5 0.3 83
2020-01-14 23:00:00 7.2 3 Sudeste 6 Nordeste 0 979.3 0.2 82
2020-01-14 22:00:00 7.4 3 Este 5 Nordeste 0 979.2 0.4 80
2020-01-14 21:00:00 7.9 0 Calma 8 Sur 0 979.2 0.9 72
2020-01-14 20:00:00 8.3 4 Sudoeste 8 Sur 0 979.1 1 70
2020-01-14 19:00:00 8.9 2 Sudoeste 7 Sudoeste 0 978.8 0.5 68
2020-01-14 18:00:00 10.2 3 Sudoeste 7 Sudoeste 0 978.3 -0.6 61
2020-01-14 17:00:00 11 2 Noroeste 8 Sudoeste 0 978.1 -1.6 56
2020-01-14 16:00:00 10.3 0 Calma 8 Sudeste 0 978.3 -2.5 59
2020-01-14 15:00:00 9 3 Este 12 Sudeste 0 978.9 -2.3 62
2020-01-14 14:00:00 7.4 7 Este 17 Este 0 979.7 -1.4 68
2020-01-14 13:00:00 5 10 Este 21 Este 0 980.8 0.2 76
2020-01-14 12:00:00 2.7 12 Este 21 Este 0 981.2 0.6 82
2020-01-14 11:00:00 -0.3 11 Este 20 Nordeste 0 981.1 0.8 90
2020-01-14 10:00:00 -1.6 9 Este 18 Este 0 980.6 0.7 92
2020-01-14 09:00:00 -2.8 9 Nordeste 13 Nordeste 0 980.6 0.9 92
2020-01-14 08:00:00 -2.7 6 Nordeste 10 Este 0 980.3 0.5 92
2020-01-14 07:00:00 -2.2 8 Este 12 Este 0 979.9 -0.1 92
2020-01-14 06:00:00 -2.4 6 Este 13 Este 0 979.7 -0.3 93
2020-01-14 05:00:00 -2.1 6 Este 13 Este 0 979.8 -0.9 93
2020-01-14 04:00:00 -1.7 5 Este 9 Este 0 980 -1.1 93
2020-01-14 03:00:00 -1.8 7 Este 10 Nordeste 0 980 -1.3 93
2020-01-14 02:00:00 -2.2 3 Este 5 Este 0 980.7 -0.3 91
2020-01-14 01:00:00 -1.9 2 Sudeste 4 Este 0 981.1 0 90
2020-01-14 00:00:00 -1.2 3 Sudeste 5 Nordeste 0 981.3 0.4 90
2020-01-13 23:00:00 -0.7 0 Calma 5 Noroeste 0 981 0.2 87
2020-01-13 22:00:00 0.2 4 Oeste 6 Sudoeste 0 981.1 0.5 89
2020-01-13 21:00:00 1.4 3 Oeste 6 Noroeste 0 980.9 0.3 87
2020-01-13 20:00:00 2.2 3 Noroeste 6 Sur 0 980.8 0.1 81
2020-01-13 19:00:00 5.5 3 Sur 6 Sur 0 980.6 -0.4 72
2020-01-13 18:00:00 8.6 3 Sudoeste 10 Sudoeste 0 980.6 -1.1 62
2020-01-13 17:00:00 9.4 6 Sudoeste 12 Sur 0 980.7 -2 57
2020-01-13 16:00:00 9.1 5 Oeste 11 Sudoeste 0 981 -2.9 57
2020-01-13 15:00:00 8.8 5 Oeste 11 Oeste 0 981.7 -2.7 56
2020-01-13 14:00:00 5.9 3 Este 11 Este 0 982.7 -1.7 66
2020-01-13 13:00:00 3.3 7 Nordeste 14 Este 0 983.9 -0.2 79
2020-01-13 12:00:00 1.3 8 Este 14 Este 0 984.4 0.5 85
2020-01-13 11:00:00 -0.2 8 Este 14 Este 0 984.4 0.5 88
2020-01-13 10:00:00 -1.3 6 Este 11 Este 0 984.1 0.3 91
2020-01-13 09:00:00 -2.5 6 Este 13 Este 0 983.9 -0.1 92
2020-01-13 08:00:00 -2.6 7 Este 14 Nordeste 0 983.9 -0.6 91
2020-01-13 07:00:00 -2.3 8 Este 12 Este 0 983.8 -1 91
2020-01-13 06:00:00 -2.4 7 Este 14 Este 0 984 -0.8 91
2020-01-13 05:00:00 -1.9 7 Este 11 Este 0 984.5 -0.7 91
2020-01-13 04:00:00 -1.7 7 Este 12 Nordeste 0 984.8 -1.1 91
2020-01-13 03:00:00 -1 7 Este 14 Este 0 984.8 -1.3 90
2020-01-13 02:00:00 -0.5 9 Este 14 Este 0 985.2 -0.9 89
2020-01-13 01:00:00 -0.7 7 Este 12 Nordeste 0 985.9 -0.1 89
2020-01-13 00:00:00 0.2 8 Este 10 Este 0 986.1 0.1 88
2020-01-12 23:00:00 -0.8 4 Nordeste 6 Nordeste 0 986.1 0.1 89
2020-01-12 22:00:00 -0.3 3 Norte 4 Norte 0 986 0.4 83
2020-01-12 21:00:00 1.4 3 Sudoeste 6 Sudoeste 0 986 0.8 80
2020-01-12 20:00:00 3.5 2 Oeste 8 Noroeste 0 986 0.8 73
2020-01-12 19:00:00 6.6 5 Oeste 8 Oeste 0 985.6 0 62
2020-01-12 18:00:00 10.8 8 Oeste 13 Oeste 0 985.2 -0.8 49
2020-01-12 17:00:00 12.3 7 Noroeste 14 Noroeste 0 985.2 -1.8 44
2020-01-12 16:00:00 11.6 5 Oeste 10 Oeste 0 985.6 -2.5 47
2020-01-12 15:00:00 9.8 2 Este 11 Este 0 986 -3 52
2020-01-12 14:00:00 7.8 8 Este 16 Este 0 987 -1.8 60
2020-01-12 13:00:00 5.6 7 Este 18 Este 0 988.1 -0.3 68
2020-01-12 12:00:00 3 9 Este 19 Este 0 989 1.1 78
2020-01-12 11:00:00 0.2 11 Este 18 Este 0 988.8 1.1 84
2020-01-12 10:00:00 -1.7 11 Este 18 Este 0 988.4 0.9 89
2020-01-12 09:00:00 -3 6 Este 12 Nordeste 0 987.9 0.6 91
2020-01-12 08:00:00 -2.6 7 Este 13 Nordeste 0 987.7 0.2 91
2020-01-12 07:00:00 -2.5 10 Nordeste 15 Nordeste 0 987.5 -0.2 92
2020-01-12 06:00:00 -2.5 8 Este 11 Este 0 987.3 -0.2 92
2020-01-12 05:00:00 -2.1 7 Este 12 Este 0 987.5 0 91
2020-01-12 04:00:00 -1.7 6 Este 11 Este 0 987.7 0 92
2020-01-12 03:00:00 -2.6 3 Este 5 Nordeste 0 987.5 -0.4 91
2020-01-12 02:00:00 -2.4 0 Calma 4 Este 0 987.5 -0.2 90
2020-01-12 01:00:00 -1.7 0 Calma 4 Este 0 987.7 0.1 90
2020-01-12 00:00:00 -1.2 3 Nordeste 4 Este 0 987.9 0.4 88
2020-01-11 23:00:00 -0.5 0 Calma 4 Oeste 0 987.7 0.7 87
2020-01-11 22:00:00 0.2 3 Norte 5 Oeste 0 987.6 1.1 85
2020-01-11 21:00:00 1.9 0 Calma 4 Noroeste 0 987.5 1.3 81
2020-01-11 20:00:00 3.5 0 Calma 4 Sudoeste 0 987 0.7 74
2020-01-11 19:00:00 6.3 3 Noroeste 6 Nordeste 0 986.5 -0.1 65
2020-01-11 18:00:00 10.1 5 Este 13 Este 0 986.2 -0.7 49
2020-01-11 17:00:00 11.2 6 Este 16 Este 0 986.3 -1.5 46
2020-01-11 16:00:00 11.4 8 Este 14 Este 0 986.6 -2.3 43
2020-01-11 15:00:00 10.3 9 Este 17 Nordeste 0 986.9 -2.5 47
2020-01-11 14:00:00 9.1 8 Este 20 Este 0 987.8 -1.5 55
2020-01-11 13:00:00 7.4 12 Este 20 Nordeste 0 988.9 0.2 62
2020-01-11 12:00:00 4.8 10 Nordeste 19 Este 0 989.4 0.9 74
2020-01-11 11:00:00 2.8 7 Este 13 Este 0 989.3 1.1 81
2020-01-11 10:00:00 -0.3 7 Este 12 Nordeste 0 988.7 0.8 90
2020-01-11 09:00:00 -1.6 8 Este 13 Nordeste 0 988.5 0.9 91
2020-01-11 08:00:00 -0.7 8 Este 11 Este 0 988.2 0.7 89
2020-01-11 07:00:00 -0.7 7 Este 12 Nordeste 0 987.9 0.2 90
2020-01-11 06:00:00 -0.8 8 Este 13 Nordeste 0 987.6 0.1 90
2020-01-11 05:00:00 -0.2 5 Este 10 Este 0 987.5 0.4 87
2020-01-11 04:00:00 -0.1 7 Este 10 Este 0 987.7 0.4 87
2020-01-11 03:00:00 -0.1 3 Sudeste 8 Sudeste 0 987.5 0.5 88
2020-01-11 02:00:00 -0.1 3 Este 4 Norte 0 987.1 0.6 85
2020-01-11 01:00:00 0.9 0 Calma 6 Noroeste 0 987.3 1.1 79
2020-01-11 00:00:00 3.1 5 Oeste 12 Oeste 0 987 0.9 71
2020-01-10 23:00:00 3.6 2 Sudoeste 11 Nordeste 0 986.5 1 69
2020-01-10 22:00:00 4.9 3 Este 14 Nordeste 0 986.2 1 64
2020-01-10 21:00:00 5.6 5 Este 12 Este 0 986.1 1.9 62
2020-01-10 20:00:00 8.5 9 Este 18 Este 0 985.5 1.5 50
2020-01-10 19:00:00 9.1 4 Sudeste 14 Nordeste 0 985.2 1.4 49
2020-01-10 18:00:00 11.5 6 Nordeste 23 Nordeste 0 984.2 0.5 43
2020-01-10 17:00:00 13.1 10 Este 22 Este 0 984 -0.2 36
2020-01-10 16:00:00 13.4 15 Nordeste 30 Este 0 983.8 -1.7 36
2020-01-10 15:00:00 13.6 11 Este 27 Nordeste 0 983.7 -1.8 37
2020-01-10 14:00:00 12.9 7 Sudeste 18 Sudeste 0 984.2 -1.2 41
2020-01-10 13:00:00 11.8 6 Sudeste 16 Sur 0 985.5 0.7 47
2020-01-10 12:00:00 8.6 3 Norte 10 Sudeste 0 985.5 1.2 65
2020-01-10 11:00:00 5.2 0 Calma 6 Este 0 985.4 1.9 94
2020-01-10 10:00:00 0.6 3 Este 8 Este 0 984.8 2.1 93
2020-01-10 09:00:00 1 6 Sudeste 11 Sudeste 0 984.3 2.1 93
2020-01-10 08:00:00 1.3 6 Este 11 Nordeste 0 983.5 1.5 93
2020-01-10 07:00:00 0.6 7 Este 10 Este 0 982.7 0.8 93
2020-01-10 06:00:00 1.3 8 Este 14 Este 0 982.2 0.4 93
2020-01-10 05:00:00 1.6 8 Este 14 Este 0 982 0.4 93
2020-01-10 04:00:00 1.6 7 Este 11 Este 0 981.9 -0.2 93
2020-01-10 03:00:00 1.8 8 Este 11 Este 0 981.8 -0.5 93
2020-01-10 02:00:00 0.5 4 Nordeste 8 Nordeste 0 981.6 -0.6 91
2020-01-10 01:00:00 1.2 0 Calma 5 Sudeste 0 982.1 -0.3 90
2020-01-10 00:00:00 2.4 4 Este 6 Sudeste 0 982.3 -0.4 91
2020-01-09 23:00:00 2.6 3 Nordeste 5 Noroeste 0 982.2 -0.1 89
2020-01-09 22:00:00 3.8 2 Noroeste 7 Sudoeste 0 982.4 0.2 84
2020-01-09 21:00:00 5.9 3 Sudoeste 12 Sudoeste 0 982.7 1 81
2020-01-09 20:00:00 6.9 7 Oeste 13 Noroeste 0 982.3 0.5 78
2020-01-09 19:00:00 8.1 9 Noroeste 12 Noroeste 0 982.2 0.6 73
2020-01-09 18:00:00 12.3 6 Noroeste 9 Noroeste 0 981.7 -0.6 61
2020-01-09 17:00:00 13.3 5 Noroeste 8 Noroeste 0 981.8 -1.4 56
2020-01-09 16:00:00 12.7 4 Este 13 Nordeste 0 981.6 -2.4 52
2020-01-09 15:00:00 12 6 Este 12 Este 0 982.3 -2.5 56
2020-01-09 14:00:00 10.8 4 Este 9 Este 0 983.2 -1.5 61
2020-01-09 13:00:00 8.8 6 Este 15 Norte 0 984 -0.9 70
2020-01-09 12:00:00 6.7 8 Nordeste 15 Nordeste 0 984.8 1.1 78
2020-01-09 11:00:00 4.3 7 Este 12 Este 0 984.7 0.8 86
2020-01-09 10:00:00 2.1 4 Este 11 Nordeste 0 984.9 1.1 92
2020-01-09 09:00:00 0.6 6 Este 11 Este 0 983.7 0.1 92
2020-01-09 08:00:00 1 5 Este 9 Este 0 983.9 -0.2 91
2020-01-09 07:00:00 1.2 5 Nordeste 11 Este 0 983.8 -0.4 91
2020-01-09 06:00:00 1.3 6 Nordeste 13 Nordeste 0 983.6 -0.8 91
2020-01-09 05:00:00 1.7 7 Nordeste 14 Nordeste 0 984.1 -0.4 91
2020-01-09 04:00:00 1.7 6 Este 10 Nordeste 0 984.2 -0.7 92
2020-01-09 03:00:00 1.9 8 Nordeste 12 Nordeste 0 984.4 -0.6 92
2020-01-09 02:00:00 2.3 6 Este 12 Este 0 984.5 -0.2 92
2020-01-09 01:00:00 2 5 Este 10 Este 0 984.9 0.2 91
2020-01-09 00:00:00 1.7 4 Nordeste 6 Nordeste 0 985 0.4 90
2020-01-08 23:00:00 1.6 4 Nordeste 7 Nordeste 0 984.7 0.2 89
2020-01-08 22:00:00 2.6 0 Calma 3 Norte 0 984.7 0.5 87
2020-01-08 21:00:00 3.9 2 Sudoeste 6 Sur 0 984.6 0.7 83
2020-01-08 20:00:00 5.6 4 Norte 5 Norte 0 984.5 0.7 81
2020-01-08 19:00:00 8.8 2 Norte 3 Norte 0 984.2 0.4 68
2020-01-08 18:00:00 12 3 Este 10 Este 0 983.9 -0.1 61
2020-01-08 17:00:00 12.9 5 Este 14 Este 0 983.8 -1.1 55
2020-01-08 16:00:00 12.4 6 Este 13 Este 0 983.8 -2.3 59
2020-01-08 15:00:00 11.3 6 Este 14 Este 0 984 -3 64
2020-01-08 14:00:00 9.2 8 Este 13 Este 0 984.9 -2.3 69
2020-01-08 13:00:00 6.6 9 Este 18 Este 0 986.1 -0.7 77
2020-01-08 12:00:00 3.8 10 Este 17 Este 0 987 0.8 85
2020-01-08 11:00:00 1.8 8 Este 14 Este 0 987.2 1.1 90
2020-01-08 10:00:00 0.2 8 Este 13 Nordeste 0 986.8 0.8 93
2020-01-08 09:00:00 -0.6 6 Este 10 Este 0 986.2 0.1 93
2020-01-08 08:00:00 -0.8 7 Este 13 Este 0 986.1 -0.2 93
2020-01-08 07:00:00 -0.6 8 Este 13 Este 0 986 -0.6 93
2020-01-08 06:00:00 -0.4 6 Este 15 Este 0 986.1 -0.2 93
2020-01-08 05:00:00 -0.3 9 Este 15 Nordeste 0 986.3 0 93
2020-01-08 04:00:00 -0.3 8 Este 13 Este 0 986.6 0 93
2020-01-08 03:00:00 0.1 7 Este 10 Este 0 986.3 -0.6 93
2020-01-08 02:00:00 0.4 6 Este 9 Este 0 986.3 -0.7 93
2020-01-08 01:00:00 -0.3 4 Este 6 Nordeste 0 986.6 -0.2 92
2020-01-08 00:00:00 0.1 0 Calma 4 Sudeste 0 986.9 0.2 90
2020-01-07 23:00:00 1 3 Nordeste 4 Norte 0 987 0.3 90
2020-01-07 22:00:00 1.9 2 Sudoeste 3 Sur 0 986.8 0.4 87
2020-01-07 21:00:00 3.3 3 Noroeste 4 Noroeste 0 986.7 0.6 85
2020-01-07 20:00:00 5.2 3 Oeste 4 Oeste 0 986.7 0.6 79
2020-01-07 19:00:00 8.5 3 Oeste 8 Sudoeste 0 986.4 0.3 67
2020-01-07 18:00:00 12.9 3 Sudoeste 8 Sudoeste 0 986.1 -0.6 53
2020-01-07 17:00:00 13.8 4 Sudoeste 9 Oeste 0 986.1 -1.6 48
2020-01-07 16:00:00 13.7 2 Oeste 8 Este 0 986.1 -2.3 51
2020-01-07 15:00:00 11.4 3 Este 14 Este 0 986.7 -2.5 59
2020-01-07 14:00:00 9.5 8 Este 16 Este 0 987.7 -1.6 67
2020-01-07 13:00:00 7.1 6 Este 16 Este 0 988.4 -0.4 75
2020-01-07 12:00:00 4.1 11 Este 18 Nordeste 0 989.2 1 87
2020-01-07 11:00:00 1.8 10 Este 16 Este 0 989.3 1.3 89
2020-01-07 10:00:00 0.2 8 Este 15 Este 0 988.8 0.9 93
2020-01-07 09:00:00 -1.3 6 Este 10 Este 0 988.2 0.3 93
2020-01-07 08:00:00 -1.1 8 Este 10 Este 0 988 0.2 93
2020-01-07 07:00:00 -0.7 7 Este 11 Este 0 987.9 -0.1 93
2020-01-07 06:00:00 -0.3 8 Este 12 Este 0 987.9 0.3 93
2020-01-07 05:00:00 -0.1 7 Este 12 Este 0 987.8 0.3 93
2020-01-07 04:00:00 0.5 9 Este 14 Este 0 988 0.6 93
2020-01-07 03:00:00 0.1 7 Este 12 Este 0 987.6 0.4 93
2020-01-07 02:00:00 0.8 6 Este 13 Este 0 987.5 0.4 92
2020-01-07 01:00:00 0.8 6 Este 9 Este 0 987.4 0.7 92
2020-01-07 00:00:00 0.3 3 Nordeste 8 Este 0 987.2 0.9 90
2020-01-06 23:00:00 1.5 5 Este 8 Este 0 987.1 1.4 91
2020-01-06 22:00:00 2.1 0 Calma 4 Noroeste 0 986.7 1.6 88
2020-01-06 21:00:00 3.3 3 Noroeste 10 Sudoeste 0 986.3 1.6 84
2020-01-06 20:00:00 4.9 4 Sudoeste 7 Sudoeste 0 985.7 1.4 81
2020-01-06 19:00:00 7.4 3 Oeste 5 Noroeste 0 985.1 0.7 69
2020-01-06 18:00:00 11 4 Este 9 Nordeste 0 984.7 0.1 58
2020-01-06 17:00:00 12 4 Nordeste 10 Este 0 984.3 -1.2 53
2020-01-06 16:00:00 11.7 6 Este 14 Este 0 984.4 -1.8 56
2020-01-06 15:00:00 10.4 9 Nordeste 14 Nordeste 0 984.6 -2.4 60
2020-01-06 14:00:00 8.8 7 Este 14 Este 0 985.5 -1.5 68
2020-01-06 13:00:00 6.6 9 Nordeste 17 Este 0 986.2 -0.4 80
2020-01-06 12:00:00 4.2 9 Este 17 Nordeste 0 987 0.9 86
2020-01-06 11:00:00 1.9 8 Este 15 Este 0 987 1.4 90
2020-01-06 10:00:00 -0.2 8 Este 13 Este 0 986.6 1.6 93